sensor_id;sensor_type;location;lat;lon;timestamp;temperature;humidity
7658;DHT22;8462;53.156;8.220;2022-11-15T00:02:07;10.60;86.60
7658;DHT22;8462;53.156;8.220;2022-11-15T00:05:13;10.50;86.80
7658;DHT22;8462;53.156;8.220;2022-11-15T00:08:17;10.40;87.10
7658;DHT22;8462;53.156;8.220;2022-11-15T00:11:22;10.40;87.30
7658;DHT22;8462;53.156;8.220;2022-11-15T00:14:27;10.40;87.50
7658;DHT22;8462;53.156;8.220;2022-11-15T00:17:31;10.30;87.60
7658;DHT22;8462;53.156;8.220;2022-11-15T00:20:37;10.30;87.70
7658;DHT22;8462;53.156;8.220;2022-11-15T00:23:43;10.20;87.80
7658;DHT22;8462;53.156;8.220;2022-11-15T00:26:47;10.20;87.90
7658;DHT22;8462;53.156;8.220;2022-11-15T00:29:52;10.20;88.10
7658;DHT22;8462;53.156;8.220;2022-11-15T00:33:00;10.10;88.30
7658;DHT22;8462;53.156;8.220;2022-11-15T00:36:08;10.10;88.40
7658;DHT22;8462;53.156;8.220;2022-11-15T00:39:13;10.00;88.40
7658;DHT22;8462;53.156;8.220;2022-11-15T00:42:17;10.00;89.50
7658;DHT22;8462;53.156;8.220;2022-11-15T00:45:22;10.00;88.80
7658;DHT22;8462;53.156;8.220;2022-11-15T00:48:27;9.90;88.80
7658;DHT22;8462;53.156;8.220;2022-11-15T00:51:32;9.90;89.00
7658;DHT22;8462;53.156;8.220;2022-11-15T00:54:37;9.90;89.00
7658;DHT22;8462;53.156;8.220;2022-11-15T00:57:41;9.80;89.10
7658;DHT22;8462;53.156;8.220;2022-11-15T01:00:46;9.80;89.30
7658;DHT22;8462;53.156;8.220;2022-11-15T01:03:51;9.80;89.40
7658;DHT22;8462;53.156;8.220;2022-11-15T01:06:56;9.80;89.70
7658;DHT22;8462;53.156;8.220;2022-11-15T01:10:00;9.70;89.80
7658;DHT22;8462;53.156;8.220;2022-11-15T01:13:05;9.70;89.90
7658;DHT22;8462;53.156;8.220;2022-11-15T01:16:11;9.60;89.80
7658;DHT22;8462;53.156;8.220;2022-11-15T01:19:17;9.60;90.00
7658;DHT22;8462;53.156;8.220;2022-11-15T01:22:23;9.50;90.00
7658;DHT22;8462;53.156;8.220;2022-11-15T01:25:27;9.50;90.00
7658;DHT22;8462;53.156;8.220;2022-11-15T01:28:32;9.50;90.10
7658;DHT22;8462;53.156;8.220;2022-11-15T01:31:37;9.40;90.10
7658;DHT22;8462;53.156;8.220;2022-11-15T01:34:42;9.40;90.30
7658;DHT22;8462;53.156;8.220;2022-11-15T01:37:51;9.30;90.30
7658;DHT22;8462;53.156;8.220;2022-11-15T01:40:56;9.30;90.30
7658;DHT22;8462;53.156;8.220;2022-11-15T01:47:41;9.20;90.30
7658;DHT22;8462;53.156;8.220;2022-11-15T01:50:47;9.20;90.30
7658;DHT22;8462;53.156;8.220;2022-11-15T01:53:56;9.10;90.40
7658;DHT22;8462;53.156;8.220;2022-11-15T01:57:05;9.10;90.50
7658;DHT22;8462;53.156;8.220;2022-11-15T02:00:12;9.10;90.60
7658;DHT22;8462;53.156;8.220;2022-11-15T02:03:17;9.00;90.50
7658;DHT22;8462;53.156;8.220;2022-11-15T02:06:22;9.00;90.60
7658;DHT22;8462;53.156;8.220;2022-11-15T02:09:28;9.10;91.10
7658;DHT22;8462;53.156;8.220;2022-11-15T02:12:33;9.20;91.00
7658;DHT22;8462;53.156;8.220;2022-11-15T02:15:41;9.30;90.90
7658;DHT22;8462;53.156;8.220;2022-11-15T02:18:53;9.40;90.70
7658;DHT22;8462;53.156;8.220;2022-11-15T02:22:07;9.50;90.50
7658;DHT22;8462;53.156;8.220;2022-11-15T02:25:36;9.60;90.40
7658;DHT22;8462;53.156;8.220;2022-11-15T02:28:48;9.70;90.30
7658;DHT22;8462;53.156;8.220;2022-11-15T02:31:59;9.80;90.30
7658;DHT22;8462;53.156;8.220;2022-11-15T02:35:15;9.90;90.10
7658;DHT22;8462;53.156;8.220;2022-11-15T02:38:29;10.00;89.60
7658;DHT22;8462;53.156;8.220;2022-11-15T02:41:39;10.00;89.30
7658;DHT22;8462;53.156;8.220;2022-11-15T02:44:46;10.10;89.10
7658;DHT22;8462;53.156;8.220;2022-11-15T02:47:54;10.10;88.80
7658;DHT22;8462;53.156;8.220;2022-11-15T02:51:01;10.20;88.60
7658;DHT22;8462;53.156;8.220;2022-11-15T02:54:06;10.20;88.40
7658;DHT22;8462;53.156;8.220;2022-11-15T02:57:14;10.20;88.20
7658;DHT22;8462;53.156;8.220;2022-11-15T03:00:20;10.30;88.10
7658;DHT22;8462;53.156;8.220;2022-11-15T03:03:45;10.30;88.00
7658;DHT22;8462;53.156;8.220;2022-11-15T03:06:58;10.30;88.10
7658;DHT22;8462;53.156;8.220;2022-11-15T03:10:10;10.40;88.10
7658;DHT22;8462;53.156;8.220;2022-11-15T03:13:22;10.40;88.10
7658;DHT22;8462;53.156;8.220;2022-11-15T03:16:32;10.50;87.80
7658;DHT22;8462;53.156;8.220;2022-11-15T03:19:44;10.60;87.70
7658;DHT22;8462;53.156;8.220;2022-11-15T03:22:49;10.60;87.70
7658;DHT22;8462;53.156;8.220;2022-11-15T03:25:55;10.60;87.60
7658;DHT22;8462;53.156;8.220;2022-11-15T03:29:03;10.70;87.60
7658;DHT22;8462;53.156;8.220;2022-11-15T03:32:12;10.70;87.60
7658;DHT22;8462;53.156;8.220;2022-11-15T03:35:21;10.80;87.80
7658;DHT22;8462;53.156;8.220;2022-11-15T03:38:35;10.90;87.50
7658;DHT22;8462;53.156;8.220;2022-11-15T03:41:46;10.90;87.50
7658;DHT22;8462;53.156;8.220;2022-11-15T03:44:57;10.90;87.60
7658;DHT22;8462;53.156;8.220;2022-11-15T03:48:07;11.00;87.70
7658;DHT22;8462;53.156;8.220;2022-11-15T03:51:14;11.00;87.70
7658;DHT22;8462;53.156;8.220;2022-11-15T03:54:19;11.10;87.70
7658;DHT22;8462;53.156;8.220;2022-11-15T03:57:24;11.10;87.50
7658;DHT22;8462;53.156;8.220;2022-11-15T04:00:28;11.20;87.50
7658;DHT22;8462;53.156;8.220;2022-11-15T04:03:33;11.20;87.50
7658;DHT22;8462;53.156;8.220;2022-11-15T04:06:38;11.20;87.50
7658;DHT22;8462;53.156;8.220;2022-11-15T04:09:42;11.30;87.40
7658;DHT22;8462;53.156;8.220;2022-11-15T04:13:02;11.30;87.50
7658;DHT22;8462;53.156;8.220;2022-11-15T04:16:07;11.30;87.30
7658;DHT22;8462;53.156;8.220;2022-11-15T04:19:12;11.30;87.30
7658;DHT22;8462;53.156;8.220;2022-11-15T04:22:35;11.40;87.30
7658;DHT22;8462;53.156;8.220;2022-11-15T04:25:59;11.40;87.30
7658;DHT22;8462;53.156;8.220;2022-11-15T04:29:05;11.40;87.30
7658;DHT22;8462;53.156;8.220;2022-11-15T04:32:27;11.40;87.10
7658;DHT22;8462;53.156;8.220;2022-11-15T04:35:32;11.50;87.20
7658;DHT22;8462;53.156;8.220;2022-11-15T04:38:37;11.50;87.00
7658;DHT22;8462;53.156;8.220;2022-11-15T04:41:42;11.60;86.80
7658;DHT22;8462;53.156;8.220;2022-11-15T04:44:46;11.60;86.80
7658;DHT22;8462;53.156;8.220;2022-11-15T04:47:51;11.60;86.80
7658;DHT22;8462;53.156;8.220;2022-11-15T04:50:56;11.70;87.00
7658;DHT22;8462;53.156;8.220;2022-11-15T04:54:02;11.60;86.90
7658;DHT22;8462;53.156;8.220;2022-11-15T04:57:06;11.70;87.40
7658;DHT22;8462;53.156;8.220;2022-11-15T05:00:12;11.80;87.10
7658;DHT22;8462;53.156;8.220;2022-11-15T05:03:17;11.80;86.90
7658;DHT22;8462;53.156;8.220;2022-11-15T05:06:39;11.90;87.10
7658;DHT22;8462;53.156;8.220;2022-11-15T05:09:45;11.90;86.90
7658;DHT22;8462;53.156;8.220;2022-11-15T05:12:50;12.00;86.90
7658;DHT22;8462;53.156;8.220;2022-11-15T05:15:54;12.00;87.10
7658;DHT22;8462;53.156;8.220;2022-11-15T05:18:58;12.00;86.90
7658;DHT22;8462;53.156;8.220;2022-11-15T05:22:02;12.10;87.00
7658;DHT22;8462;53.156;8.220;2022-11-15T05:25:08;12.20;87.10
7658;DHT22;8462;53.156;8.220;2022-11-15T05:28:13;12.20;87.00
7658;DHT22;8462;53.156;8.220;2022-11-15T05:31:22;12.20;87.00
7658;DHT22;8462;53.156;8.220;2022-11-15T05:34:27;12.30;86.90
7658;DHT22;8462;53.156;8.220;2022-11-15T05:37:31;12.30;87.00
7658;DHT22;8462;53.156;8.220;2022-11-15T05:40:37;12.30;87.10
7658;DHT22;8462;53.156;8.220;2022-11-15T05:43:42;12.30;87.30
7658;DHT22;8462;53.156;8.220;2022-11-15T05:46:47;12.40;87.10
7658;DHT22;8462;53.156;8.220;2022-11-15T05:49:53;12.40;87.20
7658;DHT22;8462;53.156;8.220;2022-11-15T05:52:59;12.40;87.20
7658;DHT22;8462;53.156;8.220;2022-11-15T05:56:06;12.50;87.20
7658;DHT22;8462;53.156;8.220;2022-11-15T05:59:12;12.50;87.00
7658;DHT22;8462;53.156;8.220;2022-11-15T06:02:20;12.60;86.90
7658;DHT22;8462;53.156;8.220;2022-11-15T06:05:24;12.60;87.00
7658;DHT22;8462;53.156;8.220;2022-11-15T06:08:28;12.60;86.80
7658;DHT22;8462;53.156;8.220;2022-11-15T06:11:34;12.60;86.90
7658;DHT22;8462;53.156;8.220;2022-11-15T06:14:39;12.60;87.00
7658;DHT22;8462;53.156;8.220;2022-11-15T06:17:43;12.70;87.20
7658;DHT22;8462;53.156;8.220;2022-11-15T06:20:48;12.70;86.90
7658;DHT22;8462;53.156;8.220;2022-11-15T06:23:52;12.70;87.10
7658;DHT22;8462;53.156;8.220;2022-11-15T06:26:58;12.80;87.30
7658;DHT22;8462;53.156;8.220;2022-11-15T06:30:03;12.80;87.30
7658;DHT22;8462;53.156;8.220;2022-11-15T06:33:07;12.80;87.00
7658;DHT22;8462;53.156;8.220;2022-11-15T06:36:13;12.90;87.10
7658;DHT22;8462;53.156;8.220;2022-11-15T06:39:19;13.00;87.10
7658;DHT22;8462;53.156;8.220;2022-11-15T06:42:25;13.00;87.10
7658;DHT22;8462;53.156;8.220;2022-11-15T06:45:30;13.10;87.20
7658;DHT22;8462;53.156;8.220;2022-11-15T06:48:35;13.20;87.50
7658;DHT22;8462;53.156;8.220;2022-11-15T06:51:40;13.20;87.00
7658;DHT22;8462;53.156;8.220;2022-11-15T06:54:45;13.20;87.20
7658;DHT22;8462;53.156;8.220;2022-11-15T06:57:52;13.30;87.50
7658;DHT22;8462;53.156;8.220;2022-11-15T07:00:59;13.30;86.80
7658;DHT22;8462;53.156;8.220;2022-11-15T07:04:04;13.30;86.90
7658;DHT22;8462;53.156;8.220;2022-11-15T07:07:09;13.40;86.50
7658;DHT22;8462;53.156;8.220;2022-11-15T07:10:14;13.40;86.40
7658;DHT22;8462;53.156;8.220;2022-11-15T07:13:20;13.40;86.60
7658;DHT22;8462;53.156;8.220;2022-11-15T07:16:27;13.50;86.50
7658;DHT22;8462;53.156;8.220;2022-11-15T07:19:32;13.50;86.60
7658;DHT22;8462;53.156;8.220;2022-11-15T07:22:36;13.50;86.50
7658;DHT22;8462;53.156;8.220;2022-11-15T07:25:41;13.60;86.20
7658;DHT22;8462;53.156;8.220;2022-11-15T07:28:47;13.60;86.20
7658;DHT22;8462;53.156;8.220;2022-11-15T07:31:51;13.70;86.00
7658;DHT22;8462;53.156;8.220;2022-11-15T07:34:56;13.80;86.10
7658;DHT22;8462;53.156;8.220;2022-11-15T07:38:02;13.80;85.80
7658;DHT22;8462;53.156;8.220;2022-11-15T07:41:07;13.90;85.60
7658;DHT22;8462;53.156;8.220;2022-11-15T07:44:13;13.90;85.60
7658;DHT22;8462;53.156;8.220;2022-11-15T07:47:17;13.90;85.70
7658;DHT22;8462;53.156;8.220;2022-11-15T07:50:23;13.80;85.60
7658;DHT22;8462;53.156;8.220;2022-11-15T07:53:27;13.90;85.90
7658;DHT22;8462;53.156;8.220;2022-11-15T07:56:32;13.90;85.90
7658;DHT22;8462;53.156;8.220;2022-11-15T07:59:38;13.90;85.80
7658;DHT22;8462;53.156;8.220;2022-11-15T08:02:42;13.80;85.90
7658;DHT22;8462;53.156;8.220;2022-11-15T08:05:50;13.80;86.00
7658;DHT22;8462;53.156;8.220;2022-11-15T08:08:55;13.80;86.20
7658;DHT22;8462;53.156;8.220;2022-11-15T08:12:00;13.80;86.30
7658;DHT22;8462;53.156;8.220;2022-11-15T08:15:06;13.80;86.30
7658;DHT22;8462;53.156;8.220;2022-11-15T08:18:13;13.90;86.30
7658;DHT22;8462;53.156;8.220;2022-11-15T08:21:21;13.90;86.40
7658;DHT22;8462;53.156;8.220;2022-11-15T08:24:26;13.90;86.70
7658;DHT22;8462;53.156;8.220;2022-11-15T08:27:31;14.00;86.60
7658;DHT22;8462;53.156;8.220;2022-11-15T08:30:38;14.10;86.30
7658;DHT22;8462;53.156;8.220;2022-11-15T08:33:45;14.10;86.20
7658;DHT22;8462;53.156;8.220;2022-11-15T08:36:50;14.20;86.10
7658;DHT22;8462;53.156;8.220;2022-11-15T08:39:54;14.30;86.00
7658;DHT22;8462;53.156;8.220;2022-11-15T08:43:03;14.30;85.80
7658;DHT22;8462;53.156;8.220;2022-11-15T08:46:15;14.30;85.70
7658;DHT22;8462;53.156;8.220;2022-11-15T08:49:21;14.40;86.50
7658;DHT22;8462;53.156;8.220;2022-11-15T08:52:26;14.30;85.50
7658;DHT22;8462;53.156;8.220;2022-11-15T08:55:30;14.40;85.60
7658;DHT22;8462;53.156;8.220;2022-11-15T08:58:35;14.30;85.70
7658;DHT22;8462;53.156;8.220;2022-11-15T09:01:42;14.30;85.90
7658;DHT22;8462;53.156;8.220;2022-11-15T09:04:47;14.30;86.10
7658;DHT22;8462;53.156;8.220;2022-11-15T09:07:53;14.30;86.20
7658;DHT22;8462;53.156;8.220;2022-11-15T09:10:58;14.30;86.40
7658;DHT22;8462;53.156;8.220;2022-11-15T09:14:02;14.30;86.70
7658;DHT22;8462;53.156;8.220;2022-11-15T09:17:08;14.30;86.40
7658;DHT22;8462;53.156;8.220;2022-11-15T09:20:13;14.40;86.50
7658;DHT22;8462;53.156;8.220;2022-11-15T09:23:18;14.50;86.60
7658;DHT22;8462;53.156;8.220;2022-11-15T09:26:23;14.60;86.30
7658;DHT22;8462;53.156;8.220;2022-11-15T09:29:27;14.70;86.00
7658;DHT22;8462;53.156;8.220;2022-11-15T09:32:33;14.80;85.60
7658;DHT22;8462;53.156;8.220;2022-11-15T09:35:38;14.90;85.20
7658;DHT22;8462;53.156;8.220;2022-11-15T09:38:44;15.00;85.00
7658;DHT22;8462;53.156;8.220;2022-11-15T09:42:02;15.10;84.90
7658;DHT22;8462;53.156;8.220;2022-11-15T09:45:20;15.20;84.80
7658;DHT22;8462;53.156;8.220;2022-11-15T09:48:51;15.20;84.20
7658;DHT22;8462;53.156;8.220;2022-11-15T09:51:59;15.20;84.00
7658;DHT22;8462;53.156;8.220;2022-11-15T09:54:47;15.30;84.30
7658;DHT22;8462;53.156;8.220;2022-11-15T09:57:39;15.30;84.00
7658;DHT22;8462;53.156;8.220;2022-11-15T10:00:32;15.30;84.10
7658;DHT22;8462;53.156;8.220;2022-11-15T10:03:25;15.40;84.20
7658;DHT22;8462;53.156;8.220;2022-11-15T10:06:22;15.50;84.10
7658;DHT22;8462;53.156;8.220;2022-11-15T10:09:15;15.60;83.70
7658;DHT22;8462;53.156;8.220;2022-11-15T10:12:06;15.70;82.80
7658;DHT22;8462;53.156;8.220;2022-11-15T10:15:00;15.80;82.80
7658;DHT22;8462;53.156;8.220;2022-11-15T10:18:08;15.90;82.10
7658;DHT22;8462;53.156;8.220;2022-11-15T10:21:12;16.00;81.60
7658;DHT22;8462;53.156;8.220;2022-11-15T10:24:00;16.10;81.10
7658;DHT22;8462;53.156;8.220;2022-11-15T10:26:47;16.20;81.00
7658;DHT22;8462;53.156;8.220;2022-11-15T10:29:32;16.30;80.80
7658;DHT22;8462;53.156;8.220;2022-11-15T10:32:19;16.30;80.60
7658;DHT22;8462;53.156;8.220;2022-11-15T10:35:17;16.40;80.70
7658;DHT22;8462;53.156;8.220;2022-11-15T10:38:05;16.40;80.30
7658;DHT22;8462;53.156;8.220;2022-11-15T10:41:06;16.50;80.20
7658;DHT22;8462;53.156;8.220;2022-11-15T10:44:17;16.50;79.80
7658;DHT22;8462;53.156;8.220;2022-11-15T10:47:33;16.50;79.70
7658;DHT22;8462;53.156;8.220;2022-11-15T10:50:29;16.40;80.00
7658;DHT22;8462;53.156;8.220;2022-11-15T10:53:27;16.40;80.40
7658;DHT22;8462;53.156;8.220;2022-11-15T10:56:21;16.40;80.30
7658;DHT22;8462;53.156;8.220;2022-11-15T10:59:16;16.40;80.50
7658;DHT22;8462;53.156;8.220;2022-11-15T11:02:20;16.40;80.60
7658;DHT22;8462;53.156;8.220;2022-11-15T11:05:26;16.40;80.60
7658;DHT22;8462;53.156;8.220;2022-11-15T11:08:23;16.50;80.50
7658;DHT22;8462;53.156;8.220;2022-11-15T11:11:09;16.60;80.80
7658;DHT22;8462;53.156;8.220;2022-11-15T11:14:11;16.70;80.00
7658;DHT22;8462;53.156;8.220;2022-11-15T11:17:02;16.80;80.00
7658;DHT22;8462;53.156;8.220;2022-11-15T11:19:56;16.90;79.20
7658;DHT22;8462;53.156;8.220;2022-11-15T11:22:55;17.00;78.90
7658;DHT22;8462;53.156;8.220;2022-11-15T11:25:50;17.00;78.60
7658;DHT22;8462;53.156;8.220;2022-11-15T11:28:41;17.00;78.70
7658;DHT22;8462;53.156;8.220;2022-11-15T11:31:40;17.00;78.90
7658;DHT22;8462;53.156;8.220;2022-11-15T11:34:40;17.10;78.80
7658;DHT22;8462;53.156;8.220;2022-11-15T11:37:36;17.10;78.70
7658;DHT22;8462;53.156;8.220;2022-11-15T11:40:29;17.10;78.80
7658;DHT22;8462;53.156;8.220;2022-11-15T11:43:21;17.10;78.80
7658;DHT22;8462;53.156;8.220;2022-11-15T11:46:34;17.00;78.60
7658;DHT22;8462;53.156;8.220;2022-11-15T11:49:26;17.10;78.30
7658;DHT22;8462;53.156;8.220;2022-11-15T11:52:18;17.20;78.60
7658;DHT22;8462;53.156;8.220;2022-11-15T11:55:14;17.20;77.80
7658;DHT22;8462;53.156;8.220;2022-11-15T11:58:06;17.40;77.80
7658;DHT22;8462;53.156;8.220;2022-11-15T12:00:57;17.60;77.30
7658;DHT22;8462;53.156;8.220;2022-11-15T12:03:51;17.70;76.00
7658;DHT22;8462;53.156;8.220;2022-11-15T12:06:42;17.70;75.90
7658;DHT22;8462;53.156;8.220;2022-11-15T12:09:33;17.70;75.80
7658;DHT22;8462;53.156;8.220;2022-11-15T12:12:25;17.70;76.30
7658;DHT22;8462;53.156;8.220;2022-11-15T12:15:17;17.60;75.50
7658;DHT22;8462;53.156;8.220;2022-11-15T12:18:03;17.70;75.50
7658;DHT22;8462;53.156;8.220;2022-11-15T12:20:55;17.70;75.50
7658;DHT22;8462;53.156;8.220;2022-11-15T12:23:45;17.70;75.40
7658;DHT22;8462;53.156;8.220;2022-11-15T12:26:36;17.70;75.50
7658;DHT22;8462;53.156;8.220;2022-11-15T12:29:27;17.80;75.50
7658;DHT22;8462;53.156;8.220;2022-11-15T12:32:27;17.80;74.80
7658;DHT22;8462;53.156;8.220;2022-11-15T12:35:24;17.80;74.30
7658;DHT22;8462;53.156;8.220;2022-11-15T12:38:12;17.80;74.70
7658;DHT22;8462;53.156;8.220;2022-11-15T12:41:14;17.80;74.10
7658;DHT22;8462;53.156;8.220;2022-11-15T12:44:02;17.80;73.20
7658;DHT22;8462;53.156;8.220;2022-11-15T12:47:03;17.90;72.80
7658;DHT22;8462;53.156;8.220;2022-11-15T12:49:49;18.00;72.40
7658;DHT22;8462;53.156;8.220;2022-11-15T12:52:36;17.90;72.40
7658;DHT22;8462;53.156;8.220;2022-11-15T12:55:33;17.90;72.20
7658;DHT22;8462;53.156;8.220;2022-11-15T12:58:27;17.80;72.00
7658;DHT22;8462;53.156;8.220;2022-11-15T13:04:32;17.60;71.90
7658;DHT22;8462;53.156;8.220;2022-11-15T13:10:41;17.40;71.80
7658;DHT22;8462;53.156;8.220;2022-11-15T13:13:43;17.30;71.40
7658;DHT22;8462;53.156;8.220;2022-11-15T13:16:29;17.30;71.60
7658;DHT22;8462;53.156;8.220;2022-11-15T13:19:16;17.20;72.10
7658;DHT22;8462;53.156;8.220;2022-11-15T13:22:04;17.10;71.80
7658;DHT22;8462;53.156;8.220;2022-11-15T13:25:15;17.20;72.10
7658;DHT22;8462;53.156;8.220;2022-11-15T13:28:10;17.20;71.60
7658;DHT22;8462;53.156;8.220;2022-11-15T13:30:58;17.20;71.60
7658;DHT22;8462;53.156;8.220;2022-11-15T13:33:44;17.30;71.50
7658;DHT22;8462;53.156;8.220;2022-11-15T13:36:32;17.40;70.90
7658;DHT22;8462;53.156;8.220;2022-11-15T13:39:26;17.40;70.20
7658;DHT22;8462;53.156;8.220;2022-11-15T13:42:15;17.60;70.20
7658;DHT22;8462;53.156;8.220;2022-11-15T13:45:11;17.80;69.90
7658;DHT22;8462;53.156;8.220;2022-11-15T13:47:59;17.90;69.10
7658;DHT22;8462;53.156;8.220;2022-11-15T13:50:48;17.90;69.00
7658;DHT22;8462;53.156;8.220;2022-11-15T13:53:35;17.80;68.30
7658;DHT22;8462;53.156;8.220;2022-11-15T13:56:22;17.80;67.80
7658;DHT22;8462;53.156;8.220;2022-11-15T13:59:09;17.60;67.80
7658;DHT22;8462;53.156;8.220;2022-11-15T14:01:58;17.50;67.90
7658;DHT22;8462;53.156;8.220;2022-11-15T14:04:50;17.40;68.10
7658;DHT22;8462;53.156;8.220;2022-11-15T14:07:36;17.30;68.40
7658;DHT22;8462;53.156;8.220;2022-11-15T14:10:28;17.20;68.70
7658;DHT22;8462;53.156;8.220;2022-11-15T14:13:27;17.10;68.90
7658;DHT22;8462;53.156;8.220;2022-11-15T14:16:18;16.90;69.30
7658;DHT22;8462;53.156;8.220;2022-11-15T14:19:09;16.90;69.50
7658;DHT22;8462;53.156;8.220;2022-11-15T14:22:12;16.80;69.80
7658;DHT22;8462;53.156;8.220;2022-11-15T14:25:13;16.70;70.20
7658;DHT22;8462;53.156;8.220;2022-11-15T14:28:29;16.60;70.50
7658;DHT22;8462;53.156;8.220;2022-11-15T14:31:17;16.50;70.80
7658;DHT22;8462;53.156;8.220;2022-11-15T14:34:04;16.40;71.10
7658;DHT22;8462;53.156;8.220;2022-11-15T14:36:51;16.30;71.30
7658;DHT22;8462;53.156;8.220;2022-11-15T14:39:36;16.30;72.50
7658;DHT22;8462;53.156;8.220;2022-11-15T14:42:23;16.20;71.80
7658;DHT22;8462;53.156;8.220;2022-11-15T14:45:11;16.10;72.10
7658;DHT22;8462;53.156;8.220;2022-11-15T14:47:58;16.10;72.30
7658;DHT22;8462;53.156;8.220;2022-11-15T14:50:44;16.00;72.50
7658;DHT22;8462;53.156;8.220;2022-11-15T14:53:31;15.90;72.60
7658;DHT22;8462;53.156;8.220;2022-11-15T14:56:16;15.80;72.90
7658;DHT22;8462;53.156;8.220;2022-11-15T14:59:02;15.70;73.20
7658;DHT22;8462;53.156;8.220;2022-11-15T15:01:47;15.60;73.40
7658;DHT22;8462;53.156;8.220;2022-11-15T15:04:33;15.50;73.60
7658;DHT22;8462;53.156;8.220;2022-11-15T15:07:19;15.50;73.90
7658;DHT22;8462;53.156;8.220;2022-11-15T15:10:06;15.40;73.80
7658;DHT22;8462;53.156;8.220;2022-11-15T15:12:51;15.30;74.10
7658;DHT22;8462;53.156;8.220;2022-11-15T15:15:37;15.20;74.10
7658;DHT22;8462;53.156;8.220;2022-11-15T15:18:23;15.10;74.20
7658;DHT22;8462;53.156;8.220;2022-11-15T15:21:19;15.00;74.60
7658;DHT22;8462;53.156;8.220;2022-11-15T15:24:05;15.00;75.00
7658;DHT22;8462;53.156;8.220;2022-11-15T15:26:52;14.80;75.30
7658;DHT22;8462;53.156;8.220;2022-11-15T15:29:38;14.80;75.60
7658;DHT22;8462;53.156;8.220;2022-11-15T15:32:23;14.70;76.00
7658;DHT22;8462;53.156;8.220;2022-11-15T15:35:12;14.60;76.40
7658;DHT22;8462;53.156;8.220;2022-11-15T15:37:58;14.40;76.70
7658;DHT22;8462;53.156;8.220;2022-11-15T15:40:44;14.30;77.10
7658;DHT22;8462;53.156;8.220;2022-11-15T15:43:32;14.20;77.30
7658;DHT22;8462;53.156;8.220;2022-11-15T15:46:19;14.20;77.60
7658;DHT22;8462;53.156;8.220;2022-11-15T15:49:09;14.10;77.70
7658;DHT22;8462;53.156;8.220;2022-11-15T15:51:54;14.00;77.90
7658;DHT22;8462;53.156;8.220;2022-11-15T15:54:41;13.90;78.00
7658;DHT22;8462;53.156;8.220;2022-11-15T15:57:26;13.80;78.00
7658;DHT22;8462;53.156;8.220;2022-11-15T16:00:14;13.80;78.20
7658;DHT22;8462;53.156;8.220;2022-11-15T16:03:00;13.70;78.30
7658;DHT22;8462;53.156;8.220;2022-11-15T16:05:46;13.70;78.40
7658;DHT22;8462;53.156;8.220;2022-11-15T16:08:32;13.70;78.50
7658;DHT22;8462;53.156;8.220;2022-11-15T16:11:18;13.60;78.60
7658;DHT22;8462;53.156;8.220;2022-11-15T16:14:07;13.60;78.70
7658;DHT22;8462;53.156;8.220;2022-11-15T16:16:54;13.60;78.80
7658;DHT22;8462;53.156;8.220;2022-11-15T16:19:40;13.50;78.80
7658;DHT22;8462;53.156;8.220;2022-11-15T16:22:25;13.50;78.90
7658;DHT22;8462;53.156;8.220;2022-11-15T16:25:13;13.40;79.10
7658;DHT22;8462;53.156;8.220;2022-11-15T16:27:59;13.30;79.30
7658;DHT22;8462;53.156;8.220;2022-11-15T16:30:45;13.30;79.60
7658;DHT22;8462;53.156;8.220;2022-11-15T16:33:33;13.20;79.70
7658;DHT22;8462;53.156;8.220;2022-11-15T16:36:20;13.20;79.90
7658;DHT22;8462;53.156;8.220;2022-11-15T16:39:10;13.20;80.00
7658;DHT22;8462;53.156;8.220;2022-11-15T16:42:00;13.10;80.10
7658;DHT22;8462;53.156;8.220;2022-11-15T16:44:46;13.10;80.20
7658;DHT22;8462;53.156;8.220;2022-11-15T16:47:32;13.00;80.30
7658;DHT22;8462;53.156;8.220;2022-11-15T16:50:23;13.00;80.40
7658;DHT22;8462;53.156;8.220;2022-11-15T16:53:09;13.00;80.60
7658;DHT22;8462;53.156;8.220;2022-11-15T16:56:02;12.90;80.60
7658;DHT22;8462;53.156;8.220;2022-11-15T16:58:49;12.90;80.80
7658;DHT22;8462;53.156;8.220;2022-11-15T17:01:36;12.90;80.80
7658;DHT22;8462;53.156;8.220;2022-11-15T17:04:31;12.80;81.00
7658;DHT22;8462;53.156;8.220;2022-11-15T17:07:18;12.80;81.90
7658;DHT22;8462;53.156;8.220;2022-11-15T17:10:05;12.80;81.10
7658;DHT22;8462;53.156;8.220;2022-11-15T17:12:53;12.80;82.20
7658;DHT22;8462;53.156;8.220;2022-11-15T17:15:40;12.80;81.30
7658;DHT22;8462;53.156;8.220;2022-11-15T17:18:25;12.80;81.40
7658;DHT22;8462;53.156;8.220;2022-11-15T17:21:14;12.80;81.50
7658;DHT22;8462;53.156;8.220;2022-11-15T17:24:02;12.80;81.50
7658;DHT22;8462;53.156;8.220;2022-11-15T17:26:48;12.80;81.90
7658;DHT22;8462;53.156;8.220;2022-11-15T17:29:33;12.80;82.00
7658;DHT22;8462;53.156;8.220;2022-11-15T17:32:19;12.80;82.20
7658;DHT22;8462;53.156;8.220;2022-11-15T17:35:05;12.80;82.40
7658;DHT22;8462;53.156;8.220;2022-11-15T17:37:51;12.80;82.70
7658;DHT22;8462;53.156;8.220;2022-11-15T17:40:38;12.90;83.00
7658;DHT22;8462;53.156;8.220;2022-11-15T17:43:24;12.90;83.10
7658;DHT22;8462;53.156;8.220;2022-11-15T17:46:11;13.00;83.10
7658;DHT22;8462;53.156;8.220;2022-11-15T17:48:58;13.00;83.20
7658;DHT22;8462;53.156;8.220;2022-11-15T17:51:43;13.00;83.20
7658;DHT22;8462;53.156;8.220;2022-11-15T17:54:29;13.10;83.30
7658;DHT22;8462;53.156;8.220;2022-11-15T17:57:16;13.10;83.30
7658;DHT22;8462;53.156;8.220;2022-11-15T18:00:02;13.20;83.50
7658;DHT22;8462;53.156;8.220;2022-11-15T18:02:49;13.20;83.60
7658;DHT22;8462;53.156;8.220;2022-11-15T18:05:35;13.30;83.80
7658;DHT22;8462;53.156;8.220;2022-11-15T18:08:21;13.30;84.00
7658;DHT22;8462;53.156;8.220;2022-11-15T18:11:09;13.30;84.10
7658;DHT22;8462;53.156;8.220;2022-11-15T18:13:58;13.40;84.40
7658;DHT22;8462;53.156;8.220;2022-11-15T18:16:43;13.40;84.40
7658;DHT22;8462;53.156;8.220;2022-11-15T18:19:29;13.50;84.40
7658;DHT22;8462;53.156;8.220;2022-11-15T18:22:15;13.50;84.40
7658;DHT22;8462;53.156;8.220;2022-11-15T18:25:03;13.60;84.40
7658;DHT22;8462;53.156;8.220;2022-11-15T18:27:49;13.60;84.40
7658;DHT22;8462;53.156;8.220;2022-11-15T18:30:39;13.60;84.40
7658;DHT22;8462;53.156;8.220;2022-11-15T18:33:25;13.70;84.40
7658;DHT22;8462;53.156;8.220;2022-11-15T18:36:13;13.60;84.50
7658;DHT22;8462;53.156;8.220;2022-11-15T18:39:01;13.70;84.80
7658;DHT22;8462;53.156;8.220;2022-11-15T18:41:47;13.70;84.70
7658;DHT22;8462;53.156;8.220;2022-11-15T18:44:33;13.70;84.70
7658;DHT22;8462;53.156;8.220;2022-11-15T18:47:20;13.70;84.80
7658;DHT22;8462;53.156;8.220;2022-11-15T18:50:06;13.70;84.70
7658;DHT22;8462;53.156;8.220;2022-11-15T18:52:52;13.70;84.70
7658;DHT22;8462;53.156;8.220;2022-11-15T18:55:39;13.70;84.70
7658;DHT22;8462;53.156;8.220;2022-11-15T18:58:24;13.80;84.70
7658;DHT22;8462;53.156;8.220;2022-11-15T19:01:12;13.80;84.70
7658;DHT22;8462;53.156;8.220;2022-11-15T19:04:03;13.80;84.80
7658;DHT22;8462;53.156;8.220;2022-11-15T19:06:49;13.80;84.70
7658;DHT22;8462;53.156;8.220;2022-11-15T19:09:36;13.90;84.70
7658;DHT22;8462;53.156;8.220;2022-11-15T19:12:22;13.90;84.50
7658;DHT22;8462;53.156;8.220;2022-11-15T19:15:08;14.00;84.40
7658;DHT22;8462;53.156;8.220;2022-11-15T19:17:54;14.00;84.40
7658;DHT22;8462;53.156;8.220;2022-11-15T19:20:40;14.00;84.20
7658;DHT22;8462;53.156;8.220;2022-11-15T19:23:28;14.00;84.20
7658;DHT22;8462;53.156;8.220;2022-11-15T19:26:17;14.10;84.10
7658;DHT22;8462;53.156;8.220;2022-11-15T19:29:05;14.10;84.10
7658;DHT22;8462;53.156;8.220;2022-11-15T19:31:51;14.10;84.10
7658;DHT22;8462;53.156;8.220;2022-11-15T19:34:36;14.10;84.00